Gerald R Ford International Airport (GRR)


Airport Diagram
Current Weather/Forecast (VFR Conditions)
METAR KGRR 271353Z 21015KT 10SM FEW044 SCT065 BKN110 BKN240 M07/M13 A3001 RMK AO2 SLP179 T10721128
TAF KGRR 271130Z 2712/2812 20012KT P6SM BKN200 WS020/24040KT FM271500 22015G26KT P6SM VCSH BKN070 FM271700 24015G27KT P6SM VCSH OVC026 FM271800 25014G25KT 6SM -SHSN BR OVC019 FM272300 30009KT 5SM -SHSN BR BKN014 FM280200 31008KT P6SM -SN BKN015

All Charts
General
Chart Name Download
AIRPORT DIAGRAM
TAKEOFF MINIMUMS
ALTERNATE MINIMUMS
RADAR MINIMUMS
HOT SPOT

Approaches
Chart Name Download
ILS OR LOC RWY 08R
ILS OR LOC RWY 26L
ILS OR LOC RWY 35
ILS RWY 35 (SA CAT I - II)
RNAV (GPS) RWY 08L
RNAV (GPS) RWY 08R
RNAV (GPS) RWY 17
RNAV (GPS) RWY 26L
RNAV (GPS) RWY 26R
RNAV (GPS) RWY 35
VOR RWY 17